sensor_id;sensor_type;location;lat;lon;timestamp;P1;durP1;ratioP1;P2;durP2;ratioP2
40367;SDS011;26075;43.320;21.920;2023-02-18T00:02:30;187.43;;;118.35;;
40367;SDS011;26075;43.320;21.920;2023-02-18T00:12:57;195.82;;;121.10;;
40367;SDS011;26075;43.320;21.920;2023-02-18T00:17:59;173.43;;;108.03;;
40367;SDS011;26075;43.320;21.920;2023-02-18T00:23:00;169.27;;;107.25;;
40367;SDS011;26075;43.320;21.920;2023-02-18T00:28:01;172.65;;;107.00;;
40367;SDS011;26075;43.320;21.920;2023-02-18T00:33:02;165.65;;;104.22;;
40367;SDS011;26075;43.320;21.920;2023-02-18T00:38:03;157.30;;;98.53;;
40367;SDS011;26075;43.320;21.920;2023-02-18T00:43:04;145.15;;;91.68;;
40367;SDS011;26075;43.320;21.920;2023-02-18T00:48:05;134.98;;;87.22;;
40367;SDS011;26075;43.320;21.920;2023-02-18T00:53:06;152.23;;;92.22;;
40367;SDS011;26075;43.320;21.920;2023-02-18T00:58:07;157.02;;;94.68;;
40367;SDS011;26075;43.320;21.920;2023-02-18T01:08:42;167.13;;;102.95;;
40367;SDS011;26075;43.320;21.920;2023-02-18T01:13:43;167.65;;;106.07;;
40367;SDS011;26075;43.320;21.920;2023-02-18T01:18:44;174.07;;;111.47;;
40367;SDS011;26075;43.320;21.920;2023-02-18T01:23:45;172.55;;;106.35;;
40367;SDS011;26075;43.320;21.920;2023-02-18T01:28:46;138.75;;;88.10;;
40367;SDS011;26075;43.320;21.920;2023-02-18T01:33:51;105.95;;;68.30;;
40367;SDS011;26075;43.320;21.920;2023-02-18T01:38:52;124.40;;;77.47;;
40367;SDS011;26075;43.320;21.920;2023-02-18T01:49:50;155.50;;;96.18;;
40367;SDS011;26075;43.320;21.920;2023-02-18T01:54:54;159.95;;;100.28;;
40367;SDS011;26075;43.320;21.920;2023-02-18T02:11:07;160.63;;;100.47;;
40367;SDS011;26075;43.320;21.920;2023-02-18T02:27:57;115.15;;;74.45;;
40367;SDS011;26075;43.320;21.920;2023-02-18T02:33:35;118.93;;;70.80;;
40367;SDS011;26075;43.320;21.920;2023-02-18T02:38:43;111.68;;;69.93;;
40367;SDS011;26075;43.320;21.920;2023-02-18T02:49:50;113.25;;;71.75;;
40367;SDS011;26075;43.320;21.920;2023-02-18T02:54:59;123.50;;;76.78;;
40367;SDS011;26075;43.320;21.920;2023-02-18T03:16:11;112.28;;;74.07;;
40367;SDS011;26075;43.320;21.920;2023-02-18T03:26:57;110.00;;;69.68;;
40367;SDS011;26075;43.320;21.920;2023-02-18T03:32:04;118.20;;;74.63;;
40367;SDS011;26075;43.320;21.920;2023-02-18T03:37:07;106.57;;;67.20;;
40367;SDS011;26075;43.320;21.920;2023-02-18T03:42:09;88.85;;;57.17;;
40367;SDS011;26075;43.320;21.920;2023-02-18T03:47:11;82.63;;;54.97;;
40367;SDS011;26075;43.320;21.920;2023-02-18T03:52:12;76.88;;;49.40;;
40367;SDS011;26075;43.320;21.920;2023-02-18T03:57:18;77.93;;;46.63;;
40367;SDS011;26075;43.320;21.920;2023-02-18T04:02:36;76.50;;;49.35;;
40367;SDS011;26075;43.320;21.920;2023-02-18T04:07:48;88.90;;;52.13;;
40367;SDS011;26075;43.320;21.920;2023-02-18T04:13:07;78.43;;;49.28;;
40367;SDS011;26075;43.320;21.920;2023-02-18T04:18:19;76.63;;;49.35;;
40367;SDS011;26075;43.320;21.920;2023-02-18T04:23:37;73.43;;;46.35;;
40367;SDS011;26075;43.320;21.920;2023-02-18T04:28:37;74.32;;;49.08;;
40367;SDS011;26075;43.320;21.920;2023-02-18T04:33:38;75.88;;;49.85;;
40367;SDS011;26075;43.320;21.920;2023-02-18T04:38:39;70.05;;;45.45;;
40367;SDS011;26075;43.320;21.920;2023-02-18T04:43:44;69.38;;;43.88;;
40367;SDS011;26075;43.320;21.920;2023-02-18T04:48:45;72.65;;;46.35;;
40367;SDS011;26075;43.320;21.920;2023-02-18T04:53:46;77.90;;;49.63;;
40367;SDS011;26075;43.320;21.920;2023-02-18T04:58:47;66.80;;;40.67;;
40367;SDS011;26075;43.320;21.920;2023-02-18T05:03:47;61.55;;;40.60;;
40367;SDS011;26075;43.320;21.920;2023-02-18T05:08:52;58.80;;;38.95;;
40367;SDS011;26075;43.320;21.920;2023-02-18T05:13:53;59.58;;;39.35;;
40367;SDS011;26075;43.320;21.920;2023-02-18T05:24:21;64.30;;;40.65;;
40367;SDS011;26075;43.320;21.920;2023-02-18T05:35:09;65.15;;;43.00;;
40367;SDS011;26075;43.320;21.920;2023-02-18T05:45:44;63.92;;;40.28;;
40367;SDS011;26075;43.320;21.920;2023-02-18T05:50:45;56.22;;;37.55;;
40367;SDS011;26075;43.320;21.920;2023-02-18T06:01:11;68.97;;;41.70;;
40367;SDS011;26075;43.320;21.920;2023-02-18T06:12:00;65.38;;;41.58;;
40367;SDS011;26075;43.320;21.920;2023-02-18T06:17:01;79.45;;;50.00;;
40367;SDS011;26075;43.320;21.920;2023-02-18T06:22:02;76.90;;;47.40;;
40367;SDS011;26075;43.320;21.920;2023-02-18T06:27:03;79.35;;;49.15;;
40367;SDS011;26075;43.320;21.920;2023-02-18T06:32:04;104.55;;;61.95;;
40367;SDS011;26075;43.320;21.920;2023-02-18T06:37:06;86.30;;;52.80;;
40367;SDS011;26075;43.320;21.920;2023-02-18T06:47:31;73.07;;;47.67;;
40367;SDS011;26075;43.320;21.920;2023-02-18T06:52:39;75.28;;;48.83;;
40367;SDS011;26075;43.320;21.920;2023-02-18T06:57:41;78.32;;;49.00;;
40367;SDS011;26075;43.320;21.920;2023-02-18T07:02:42;76.47;;;47.53;;
40367;SDS011;26075;43.320;21.920;2023-02-18T07:07:42;46.08;;;27.98;;
40367;SDS011;26075;43.320;21.920;2023-02-18T07:12:54;59.38;;;31.88;;
40367;SDS011;26075;43.320;21.920;2023-02-18T07:17:54;117.30;;;75.35;;
40367;SDS011;26075;43.320;21.920;2023-02-18T07:22:55;130.30;;;88.43;;
40367;SDS011;26075;43.320;21.920;2023-02-18T07:27:57;108.00;;;72.40;;
40367;SDS011;26075;43.320;21.920;2023-02-18T07:32:57;57.35;;;38.13;;
40367;SDS011;26075;43.320;21.920;2023-02-18T07:37:58;72.30;;;49.25;;
40367;SDS011;26075;43.320;21.920;2023-02-18T07:42:59;69.45;;;46.42;;
40367;SDS011;26075;43.320;21.920;2023-02-18T07:48:00;65.43;;;45.25;;
40367;SDS011;26075;43.320;21.920;2023-02-18T07:53:02;76.63;;;49.10;;
40367;SDS011;26075;43.320;21.920;2023-02-18T08:03:38;74.07;;;48.63;;
40367;SDS011;26075;43.320;21.920;2023-02-18T08:08:38;73.32;;;44.72;;
40367;SDS011;26075;43.320;21.920;2023-02-18T08:13:39;66.35;;;43.03;;
40367;SDS011;26075;43.320;21.920;2023-02-18T08:18:48;67.30;;;41.70;;
40367;SDS011;26075;43.320;21.920;2023-02-18T08:23:50;65.47;;;41.35;;
40367;SDS011;26075;43.320;21.920;2023-02-18T08:28:51;57.15;;;39.97;;
40367;SDS011;26075;43.320;21.920;2023-02-18T08:33:54;70.55;;;44.03;;
40367;SDS011;26075;43.320;21.920;2023-02-18T08:38:56;68.85;;;45.33;;
40367;SDS011;26075;43.320;21.920;2023-02-18T08:43:58;66.70;;;45.35;;
40367;SDS011;26075;43.320;21.920;2023-02-18T08:54:51;75.75;;;48.50;;
40367;SDS011;26075;43.320;21.920;2023-02-18T08:59:52;68.25;;;47.65;;
40367;SDS011;26075;43.320;21.920;2023-02-18T09:04:53;78.90;;;47.90;;
40367;SDS011;26075;43.320;21.920;2023-02-18T09:09:54;68.88;;;44.25;;
40367;SDS011;26075;43.320;21.920;2023-02-18T09:14:55;70.97;;;46.10;;
40367;SDS011;26075;43.320;21.920;2023-02-18T09:19:56;67.38;;;47.38;;
40367;SDS011;26075;43.320;21.920;2023-02-18T09:24:59;66.07;;;44.28;;
40367;SDS011;26075;43.320;21.920;2023-02-18T09:30:00;68.70;;;42.90;;
40367;SDS011;26075;43.320;21.920;2023-02-18T09:35:02;63.63;;;44.20;;
40367;SDS011;26075;43.320;21.920;2023-02-18T09:45:26;61.35;;;41.38;;
40367;SDS011;26075;43.320;21.920;2023-02-18T09:55:58;47.78;;;31.40;;
40367;SDS011;26075;43.320;21.920;2023-02-18T10:01:42;41.88;;;26.55;;
40367;SDS011;26075;43.320;21.920;2023-02-18T10:06:32;37.15;;;24.75;;
40367;SDS011;26075;43.320;21.920;2023-02-18T10:17:14;34.42;;;22.05;;
40367;SDS011;26075;43.320;21.920;2023-02-18T10:22:19;32.35;;;21.15;;
40367;SDS011;26075;43.320;21.920;2023-02-18T10:27:26;37.70;;;20.67;;
40367;SDS011;26075;43.320;21.920;2023-02-18T10:32:35;29.98;;;18.67;;
40367;SDS011;26075;43.320;21.920;2023-02-18T10:52:50;36.47;;;23.45;;
40367;SDS011;26075;43.320;21.920;2023-02-18T10:57:56;31.90;;;22.85;;
40367;SDS011;26075;43.320;21.920;2023-02-18T11:03:03;36.28;;;22.55;;
40367;SDS011;26075;43.320;21.920;2023-02-18T11:08:23;32.95;;;23.05;;
40367;SDS011;26075;43.320;21.920;2023-02-18T11:13:28;31.75;;;21.63;;
40367;SDS011;26075;43.320;21.920;2023-02-18T11:23:46;25.88;;;18.20;;
40367;SDS011;26075;43.320;21.920;2023-02-18T11:28:55;24.95;;;18.02;;
40367;SDS011;26075;43.320;21.920;2023-02-18T11:34:00;24.23;;;16.48;;
40367;SDS011;26075;43.320;21.920;2023-02-18T11:44:06;32.88;;;17.08;;
40367;SDS011;26075;43.320;21.920;2023-02-18T11:49:21;31.52;;;18.67;;
40367;SDS011;26075;43.320;21.920;2023-02-18T11:54:27;23.83;;;16.13;;
40367;SDS011;26075;43.320;21.920;2023-02-18T11:59:33;23.50;;;14.45;;
40367;SDS011;26075;43.320;21.920;2023-02-18T12:04:40;24.33;;;14.17;;
40367;SDS011;26075;43.320;21.920;2023-02-18T12:09:49;26.00;;;15.02;;
40367;SDS011;26075;43.320;21.920;2023-02-18T12:15:03;20.55;;;12.90;;
40367;SDS011;26075;43.320;21.920;2023-02-18T12:40:47;18.67;;;10.25;;
40367;SDS011;26075;43.320;21.920;2023-02-18T13:02:07;22.02;;;11.75;;
40367;SDS011;26075;43.320;21.920;2023-02-18T13:07:52;16.88;;;11.13;;
40367;SDS011;26075;43.320;21.920;2023-02-18T13:13:25;18.20;;;11.15;;
40367;SDS011;26075;43.320;21.920;2023-02-18T13:18:39;23.05;;;12.52;;
40367;SDS011;26075;43.320;21.920;2023-02-18T13:39:31;19.83;;;14.45;;
40367;SDS011;26075;43.320;21.920;2023-02-18T13:44:38;20.13;;;12.52;;
40367;SDS011;26075;43.320;21.920;2023-02-18T13:49:47;28.75;;;14.18;;
40367;SDS011;26075;43.320;21.920;2023-02-18T13:54:49;25.23;;;13.25;;
40367;SDS011;26075;43.320;21.920;2023-02-18T13:59:52;21.25;;;12.63;;
40367;SDS011;26075;43.320;21.920;2023-02-18T14:30:33;33.30;;;16.15;;
40367;SDS011;26075;43.320;21.920;2023-02-18T14:35:45;20.90;;;14.45;;
40367;SDS011;26075;43.320;21.920;2023-02-18T14:51:51;19.50;;;13.20;;
40367;SDS011;26075;43.320;21.920;2023-02-18T14:56:58;21.23;;;14.10;;
40367;SDS011;26075;43.320;21.920;2023-02-18T15:02:02;26.55;;;15.60;;
40367;SDS011;26075;43.320;21.920;2023-02-18T15:07:03;27.48;;;17.05;;
40367;SDS011;26075;43.320;21.920;2023-02-18T15:12:05;38.10;;;22.63;;
40367;SDS011;26075;43.320;21.920;2023-02-18T15:17:12;29.17;;;19.60;;
40367;SDS011;26075;43.320;21.920;2023-02-18T15:22:19;38.97;;;21.90;;
40367;SDS011;26075;43.320;21.920;2023-02-18T15:27:29;45.05;;;30.08;;
40367;SDS011;26075;43.320;21.920;2023-02-18T15:32:32;44.40;;;29.48;;
40367;SDS011;26075;43.320;21.920;2023-02-18T15:37:32;53.40;;;34.92;;
40367;SDS011;26075;43.320;21.920;2023-02-18T15:42:35;61.15;;;37.60;;
40367;SDS011;26075;43.320;21.920;2023-02-18T15:47:36;56.17;;;37.05;;
40367;SDS011;26075;43.320;21.920;2023-02-18T15:52:46;41.60;;;27.42;;
40367;SDS011;26075;43.320;21.920;2023-02-18T15:57:48;53.67;;;34.45;;
40367;SDS011;26075;43.320;21.920;2023-02-18T16:03:01;114.93;;;71.70;;
40367;SDS011;26075;43.320;21.920;2023-02-18T16:08:45;80.78;;;52.13;;
40367;SDS011;26075;43.320;21.920;2023-02-18T16:13:36;83.22;;;54.70;;
40367;SDS011;26075;43.320;21.920;2023-02-18T16:18:43;118.55;;;76.95;;
40367;SDS011;26075;43.320;21.920;2023-02-18T16:23:57;143.30;;;90.15;;
40367;SDS011;26075;43.320;21.920;2023-02-18T16:29:02;127.30;;;85.40;;
40367;SDS011;26075;43.320;21.920;2023-02-18T16:34:14;110.47;;;72.70;;
40367;SDS011;26075;43.320;21.920;2023-02-18T16:39:15;124.50;;;74.30;;
40367;SDS011;26075;43.320;21.920;2023-02-18T16:44:16;209.15;;;132.68;;
40367;SDS011;26075;43.320;21.920;2023-02-18T16:49:18;224.57;;;148.07;;
40367;SDS011;26075;43.320;21.920;2023-02-18T16:54:19;245.45;;;155.40;;
40367;SDS011;26075;43.320;21.920;2023-02-18T16:59:20;212.50;;;141.27;;
40367;SDS011;26075;43.320;21.920;2023-02-18T17:04:20;247.68;;;148.02;;
40367;SDS011;26075;43.320;21.920;2023-02-18T17:09:22;220.30;;;143.63;;
40367;SDS011;26075;43.320;21.920;2023-02-18T17:14:26;213.68;;;139.10;;
40367;SDS011;26075;43.320;21.920;2023-02-18T17:19:27;202.70;;;132.77;;
40367;SDS011;26075;43.320;21.920;2023-02-18T17:24:27;163.55;;;106.75;;
40367;SDS011;26075;43.320;21.920;2023-02-18T17:29:28;148.73;;;99.72;;
40367;SDS011;26075;43.320;21.920;2023-02-18T17:34:28;120.90;;;82.53;;
40367;SDS011;26075;43.320;21.920;2023-02-18T17:39:31;96.05;;;63.55;;
40367;SDS011;26075;43.320;21.920;2023-02-18T17:44:32;105.15;;;66.65;;
40367;SDS011;26075;43.320;21.920;2023-02-18T17:49:32;87.03;;;57.13;;
40367;SDS011;26075;43.320;21.920;2023-02-18T17:54:33;97.15;;;60.95;;
40367;SDS011;26075;43.320;21.920;2023-02-18T17:59:34;138.27;;;78.10;;
40367;SDS011;26075;43.320;21.920;2023-02-18T18:04:35;141.77;;;88.05;;
40367;SDS011;26075;43.320;21.920;2023-02-18T18:09:36;144.38;;;89.55;;
40367;SDS011;26075;43.320;21.920;2023-02-18T18:14:37;132.10;;;88.68;;
40367;SDS011;26075;43.320;21.920;2023-02-18T18:19:38;111.85;;;74.80;;
40367;SDS011;26075;43.320;21.920;2023-02-18T18:24:40;118.05;;;77.97;;
40367;SDS011;26075;43.320;21.920;2023-02-18T18:29:41;111.35;;;69.55;;
40367;SDS011;26075;43.320;21.920;2023-02-18T18:34:41;109.72;;;71.40;;
40367;SDS011;26075;43.320;21.920;2023-02-18T18:39:43;105.53;;;69.95;;
40367;SDS011;26075;43.320;21.920;2023-02-18T18:44:43;114.55;;;73.05;;
40367;SDS011;26075;43.320;21.920;2023-02-18T18:49:44;119.47;;;75.75;;
40367;SDS011;26075;43.320;21.920;2023-02-18T18:54:45;102.18;;;69.25;;
40367;SDS011;26075;43.320;21.920;2023-02-18T18:59:46;95.50;;;60.90;;
40367;SDS011;26075;43.320;21.920;2023-02-18T19:04:47;90.55;;;56.20;;
40367;SDS011;26075;43.320;21.920;2023-02-18T19:09:48;88.50;;;57.58;;
40367;SDS011;26075;43.320;21.920;2023-02-18T19:14:49;153.10;;;100.47;;
40367;SDS011;26075;43.320;21.920;2023-02-18T19:19:50;193.52;;;126.85;;
40367;SDS011;26075;43.320;21.920;2023-02-18T19:24:50;172.43;;;112.25;;
40367;SDS011;26075;43.320;21.920;2023-02-18T19:29:51;192.05;;;125.60;;
40367;SDS011;26075;43.320;21.920;2023-02-18T19:34:53;162.90;;;107.95;;
40367;SDS011;26075;43.320;21.920;2023-02-18T19:39:53;134.70;;;88.10;;
40367;SDS011;26075;43.320;21.920;2023-02-18T19:44:54;137.30;;;83.15;;
40367;SDS011;26075;43.320;21.920;2023-02-18T19:49:56;164.90;;;102.75;;
40367;SDS011;26075;43.320;21.920;2023-02-18T19:54:58;125.05;;;80.40;;
40367;SDS011;26075;43.320;21.920;2023-02-18T19:59:58;116.20;;;74.95;;
40367;SDS011;26075;43.320;21.920;2023-02-18T20:04:59;179.10;;;106.07;;
40367;SDS011;26075;43.320;21.920;2023-02-18T20:10:02;175.20;;;109.60;;
40367;SDS011;26075;43.320;21.920;2023-02-18T20:15:03;200.18;;;121.32;;
40367;SDS011;26075;43.320;21.920;2023-02-18T20:20:05;211.77;;;136.27;;
40367;SDS011;26075;43.320;21.920;2023-02-18T20:25:06;242.55;;;154.30;;
40367;SDS011;26075;43.320;21.920;2023-02-18T20:30:07;255.13;;;158.75;;
40367;SDS011;26075;43.320;21.920;2023-02-18T20:35:09;248.93;;;159.38;;
40367;SDS011;26075;43.320;21.920;2023-02-18T20:40:10;226.65;;;140.73;;
40367;SDS011;26075;43.320;21.920;2023-02-18T20:45:11;252.32;;;159.23;;
40367;SDS011;26075;43.320;21.920;2023-02-18T20:50:11;263.00;;;164.18;;
40367;SDS011;26075;43.320;21.920;2023-02-18T20:55:12;301.05;;;188.55;;
40367;SDS011;26075;43.320;21.920;2023-02-18T21:00:13;318.48;;;209.73;;
40367;SDS011;26075;43.320;21.920;2023-02-18T21:05:14;294.08;;;195.32;;
40367;SDS011;26075;43.320;21.920;2023-02-18T21:10:15;265.55;;;175.57;;
40367;SDS011;26075;43.320;21.920;2023-02-18T21:15:16;280.20;;;181.07;;
40367;SDS011;26075;43.320;21.920;2023-02-18T21:20:17;306.63;;;195.65;;
40367;SDS011;26075;43.320;21.920;2023-02-18T21:25:17;245.63;;;162.18;;
40367;SDS011;26075;43.320;21.920;2023-02-18T21:30:18;322.20;;;205.93;;
40367;SDS011;26075;43.320;21.920;2023-02-18T21:35:19;142.50;;;89.78;;
40367;SDS011;26075;43.320;21.920;2023-02-18T21:40:19;193.93;;;129.85;;
40367;SDS011;26075;43.320;21.920;2023-02-18T21:45:20;162.00;;;102.65;;
40367;SDS011;26075;43.320;21.920;2023-02-18T21:50:21;172.20;;;112.93;;
40367;SDS011;26075;43.320;21.920;2023-02-18T21:55:21;151.85;;;96.72;;
40367;SDS011;26075;43.320;21.920;2023-02-18T22:00:22;123.00;;;83.85;;
40367;SDS011;26075;43.320;21.920;2023-02-18T22:05:23;100.57;;;67.35;;
40367;SDS011;26075;43.320;21.920;2023-02-18T22:10:25;80.10;;;52.55;;
40367;SDS011;26075;43.320;21.920;2023-02-18T22:15:25;62.92;;;43.58;;
40367;SDS011;26075;43.320;21.920;2023-02-18T22:20:26;55.55;;;34.25;;
40367;SDS011;26075;43.320;21.920;2023-02-18T22:25:26;61.90;;;37.88;;
40367;SDS011;26075;43.320;21.920;2023-02-18T22:30:27;72.63;;;49.00;;
40367;SDS011;26075;43.320;21.920;2023-02-18T22:35:28;94.68;;;64.75;;
40367;SDS011;26075;43.320;21.920;2023-02-18T22:40:29;157.95;;;106.45;;
40367;SDS011;26075;43.320;21.920;2023-02-18T22:45:30;148.02;;;103.38;;
40367;SDS011;26075;43.320;21.920;2023-02-18T22:50:31;86.22;;;59.60;;
40367;SDS011;26075;43.320;21.920;2023-02-18T22:55:33;111.95;;;75.38;;
40367;SDS011;26075;43.320;21.920;2023-02-18T23:00:34;114.30;;;75.70;;
40367;SDS011;26075;43.320;21.920;2023-02-18T23:05:34;163.95;;;108.07;;
40367;SDS011;26075;43.320;21.920;2023-02-18T23:10:35;167.35;;;109.32;;
40367;SDS011;26075;43.320;21.920;2023-02-18T23:15:36;181.50;;;119.18;;
40367;SDS011;26075;43.320;21.920;2023-02-18T23:20:36;162.07;;;110.05;;
40367;SDS011;26075;43.320;21.920;2023-02-18T23:25:59;147.90;;;101.43;;
40367;SDS011;26075;43.320;21.920;2023-02-18T23:31:00;153.05;;;104.00;;
40367;SDS011;26075;43.320;21.920;2023-02-18T23:36:06;164.35;;;109.63;;
40367;SDS011;26075;43.320;21.920;2023-02-18T23:41:17;148.93;;;92.97;;
40367;SDS011;26075;43.320;21.920;2023-02-18T23:46:20;168.98;;;106.25;;
40367;SDS011;26075;43.320;21.920;2023-02-18T23:51:22;114.47;;;74.93;;
40367;SDS011;26075;43.320;21.920;2023-02-18T23:56:23;116.68;;;80.88;;
